Giffnock, United Kingdom
Current Conditions -  °F | °C
As of 12:20 AM on Saturday 20 Dec 2014 (Local Time) from EGPF Reporting Station
Scattered Clouds Scattered Clouds  
Wind Chill: 36°   Ceiling: Unl
Heat Index: 45°   Visibility: 6mi
Dew Point: 37°   Wind: 21mph
Humidity: 76%   Direction: 270°W
Pressure: 29.83"   Gusts: NA
Location:  55.8°N, 4.29°W
Report Text: EGPF 200020Z AUTO 27018KT 9999 FEW009/// SCT021/// //////TCU 07/03 Q1010 RERA
Loading
Personal Weather Stations






























Interactive Weather Map New forecast layout! Learn more

10-Day Weather Forecast

Advertisements
Track Severe Weather on mobile